sensor_id;sensor_type;location;lat;lon;timestamp;P1;durP1;ratioP1;P2;durP2;ratioP2
53056;SDS011;38940;50.096;4.012;2022-09-20T00:00:32;57.28;;;52.20;;
53056;SDS011;38940;50.096;4.012;2022-09-20T00:02:58;53.25;;;49.42;;
53056;SDS011;38940;50.096;4.012;2022-09-20T00:05:24;44.47;;;40.88;;
53056;SDS011;38940;50.096;4.012;2022-09-20T00:07:50;45.05;;;41.92;;
53056;SDS011;38940;50.096;4.012;2022-09-20T00:10:16;49.85;;;45.20;;
53056;SDS011;38940;50.096;4.012;2022-09-20T00:12:43;40.97;;;38.08;;
53056;SDS011;38940;50.096;4.012;2022-09-20T00:15:09;44.30;;;41.30;;
53056;SDS011;38940;50.096;4.012;2022-09-20T00:17:35;41.90;;;38.92;;
53056;SDS011;38940;50.096;4.012;2022-09-20T00:20:01;69.07;;;64.45;;
53056;SDS011;38940;50.096;4.012;2022-09-20T00:22:27;74.80;;;69.88;;
53056;SDS011;38940;50.096;4.012;2022-09-20T00:24:53;72.70;;;67.72;;
53056;SDS011;38940;50.096;4.012;2022-09-20T00:27:19;77.43;;;72.47;;
53056;SDS011;38940;50.096;4.012;2022-09-20T00:29:45;73.93;;;68.28;;
53056;SDS011;38940;50.096;4.012;2022-09-20T00:32:11;76.05;;;71.05;;
53056;SDS011;38940;50.096;4.012;2022-09-20T00:34:37;71.85;;;66.85;;
53056;SDS011;38940;50.096;4.012;2022-09-20T00:37:22;64.82;;;60.00;;
53056;SDS011;38940;50.096;4.012;2022-09-20T00:39:48;78.28;;;72.88;;
53056;SDS011;38940;50.096;4.012;2022-09-20T00:42:14;74.65;;;69.28;;
53056;SDS011;38940;50.096;4.012;2022-09-20T00:44:53;71.88;;;67.10;;
53056;SDS011;38940;50.096;4.012;2022-09-20T00:49:47;78.82;;;73.63;;
53056;SDS011;38940;50.096;4.012;2022-09-20T00:52:14;68.40;;;63.45;;
53056;SDS011;38940;50.096;4.012;2022-09-20T00:54:40;66.07;;;61.40;;
53056;SDS011;38940;50.096;4.012;2022-09-20T00:57:06;65.85;;;60.60;;
53056;SDS011;38940;50.096;4.012;2022-09-20T00:59:33;64.20;;;59.60;;
53056;SDS011;38940;50.096;4.012;2022-09-20T01:02:02;67.43;;;62.20;;
53056;SDS011;38940;50.096;4.012;2022-09-20T01:04:31;65.85;;;61.22;;
53056;SDS011;38940;50.096;4.012;2022-09-20T01:06:59;74.55;;;69.47;;
53056;SDS011;38940;50.096;4.012;2022-09-20T01:09:26;65.45;;;59.70;;
53056;SDS011;38940;50.096;4.012;2022-09-20T01:11:53;64.47;;;59.42;;
53056;SDS011;38940;50.096;4.012;2022-09-20T01:14:20;59.00;;;54.83;;
53056;SDS011;38940;50.096;4.012;2022-09-20T01:16:48;56.30;;;52.60;;
53056;SDS011;38940;50.096;4.012;2022-09-20T01:19:27;61.67;;;57.42;;
53056;SDS011;38940;50.096;4.012;2022-09-20T01:21:56;65.00;;;60.28;;
53056;SDS011;38940;50.096;4.012;2022-09-20T01:24:26;64.90;;;60.33;;
53056;SDS011;38940;50.096;4.012;2022-09-20T01:26:57;66.07;;;61.63;;
53056;SDS011;38940;50.096;4.012;2022-09-20T01:32:11;64.55;;;60.13;;
53056;SDS011;38940;50.096;4.012;2022-09-20T01:34:45;64.28;;;59.58;;
53056;SDS011;38940;50.096;4.012;2022-09-20T01:37:18;58.65;;;54.63;;
53056;SDS011;38940;50.096;4.012;2022-09-20T01:42:35;58.90;;;54.70;;
53056;SDS011;38940;50.096;4.012;2022-09-20T01:45:03;57.22;;;53.30;;
53056;SDS011;38940;50.096;4.012;2022-09-20T01:47:40;48.65;;;45.45;;
53056;SDS011;38940;50.096;4.012;2022-09-20T02:11:16;64.18;;;59.25;;
53056;SDS011;38940;50.096;4.012;2022-09-20T02:13:51;60.83;;;56.42;;
53056;SDS011;38940;50.096;4.012;2022-09-20T02:16:42;58.35;;;54.28;;
53056;SDS011;38940;50.096;4.012;2022-09-20T02:19:18;48.63;;;45.22;;
53056;SDS011;38940;50.096;4.012;2022-09-20T02:37:18;67.97;;;63.25;;
53056;SDS011;38940;50.096;4.012;2022-09-20T02:39:57;53.72;;;50.10;;
53056;SDS011;38940;50.096;4.012;2022-09-20T02:42:30;50.58;;;46.95;;
53056;SDS011;38940;50.096;4.012;2022-09-20T02:47:32;47.50;;;44.45;;
53056;SDS011;38940;50.096;4.012;2022-09-20T02:55:04;64.15;;;59.03;;
53056;SDS011;38940;50.096;4.012;2022-09-20T02:57:53;52.97;;;49.25;;
53056;SDS011;38940;50.096;4.012;2022-09-20T03:00:36;49.85;;;46.53;;
53056;SDS011;38940;50.096;4.012;2022-09-20T03:03:55;50.85;;;46.95;;
53056;SDS011;38940;50.096;4.012;2022-09-20T03:06:20;50.17;;;46.78;;
53056;SDS011;38940;50.096;4.012;2022-09-20T03:09:02;55.55;;;51.72;;
53056;SDS011;38940;50.096;4.012;2022-09-20T03:11:33;54.67;;;51.03;;
53056;SDS011;38940;50.096;4.012;2022-09-20T03:14:07;66.70;;;62.10;;
53056;SDS011;38940;50.096;4.012;2022-09-20T03:21:59;42.70;;;39.88;;
53056;SDS011;38940;50.096;4.012;2022-09-20T03:26:57;53.08;;;49.58;;
53056;SDS011;38940;50.096;4.012;2022-09-20T03:32:20;65.70;;;60.90;;
53056;SDS011;38940;50.096;4.012;2022-09-20T03:34:55;66.18;;;61.58;;
53056;SDS011;38940;50.096;4.012;2022-09-20T03:40:22;67.93;;;63.42;;
53056;SDS011;38940;50.096;4.012;2022-09-20T03:42:53;51.85;;;48.35;;
53056;SDS011;38940;50.096;4.012;2022-09-20T03:45:34;55.67;;;51.90;;
53056;SDS011;38940;50.096;4.012;2022-09-20T04:01:00;54.85;;;51.15;;
53056;SDS011;38940;50.096;4.012;2022-09-20T04:11:42;58.53;;;54.60;;
53056;SDS011;38940;50.096;4.012;2022-09-20T04:17:21;53.53;;;50.08;;
53056;SDS011;38940;50.096;4.012;2022-09-20T04:20:02;60.85;;;56.92;;
53056;SDS011;38940;50.096;4.012;2022-09-20T04:22:30;61.50;;;57.45;;
53056;SDS011;38940;50.096;4.012;2022-09-20T04:25:03;45.65;;;42.10;;
53056;SDS011;38940;50.096;4.012;2022-09-20T04:27:38;46.17;;;43.00;;
53056;SDS011;38940;50.096;4.012;2022-09-20T04:32:43;57.00;;;53.20;;
53056;SDS011;38940;50.096;4.012;2022-09-20T04:38:16;75.82;;;70.47;;
53056;SDS011;38940;50.096;4.012;2022-09-20T04:56:32;50.30;;;47.00;;
53056;SDS011;38940;50.096;4.012;2022-09-20T04:59:06;35.22;;;32.95;;
53056;SDS011;38940;50.096;4.012;2022-09-20T05:20:54;55.00;;;51.25;;
53056;SDS011;38940;50.096;4.012;2022-09-20T05:28:24;46.42;;;43.33;;
53056;SDS011;38940;50.096;4.012;2022-09-20T05:30:55;44.30;;;40.38;;
53056;SDS011;38940;50.096;4.012;2022-09-20T05:33:28;36.65;;;34.15;;
53056;SDS011;38940;50.096;4.012;2022-09-20T05:36:03;52.30;;;48.70;;
53056;SDS011;38940;50.096;4.012;2022-09-20T05:43:56;40.85;;;38.17;;
53056;SDS011;38940;50.096;4.012;2022-09-20T05:48:55;52.45;;;48.95;;
53056;SDS011;38940;50.096;4.012;2022-09-20T06:02:08;55.47;;;51.85;;
53056;SDS011;38940;50.096;4.012;2022-09-20T06:04:52;50.85;;;47.35;;
53056;SDS011;38940;50.096;4.012;2022-09-20T06:10:08;62.53;;;58.08;;
53056;SDS011;38940;50.096;4.012;2022-09-20T06:20:36;52.78;;;48.25;;
53056;SDS011;38940;50.096;4.012;2022-09-20T06:23:04;51.55;;;48.00;;
53056;SDS011;38940;50.096;4.012;2022-09-20T06:28:13;52.17;;;48.67;;
53056;SDS011;38940;50.096;4.012;2022-09-20T06:30:47;52.55;;;48.92;;
53056;SDS011;38940;50.096;4.012;2022-09-20T06:36:14;51.90;;;47.53;;
53056;SDS011;38940;50.096;4.012;2022-09-20T06:41:46;59.05;;;55.03;;
53056;SDS011;38940;50.096;4.012;2022-09-20T06:44:13;62.30;;;57.35;;
53056;SDS011;38940;50.096;4.012;2022-09-20T06:46:39;57.50;;;53.63;;
53056;SDS011;38940;50.096;4.012;2022-09-20T06:49:06;60.67;;;56.38;;
53056;SDS011;38940;50.096;4.012;2022-09-20T06:51:36;60.33;;;56.13;;
53056;SDS011;38940;50.096;4.012;2022-09-20T06:54:03;56.92;;;53.15;;
53056;SDS011;38940;50.096;4.012;2022-09-20T06:56:30;57.38;;;53.42;;
53056;SDS011;38940;50.096;4.012;2022-09-20T06:58:58;65.97;;;60.38;;
53056;SDS011;38940;50.096;4.012;2022-09-20T07:01:24;66.57;;;61.40;;
53056;SDS011;38940;50.096;4.012;2022-09-20T07:03:50;61.28;;;57.15;;
53056;SDS011;38940;50.096;4.012;2022-09-20T07:06:16;69.57;;;64.82;;
53056;SDS011;38940;50.096;4.012;2022-09-20T07:08:44;72.55;;;67.40;;
53056;SDS011;38940;50.096;4.012;2022-09-20T07:11:14;81.65;;;75.95;;
53056;SDS011;38940;50.096;4.012;2022-09-20T07:13:44;81.90;;;76.50;;
53056;SDS011;38940;50.096;4.012;2022-09-20T07:16:12;94.22;;;87.80;;
53056;SDS011;38940;50.096;4.012;2022-09-20T07:18:39;80.15;;;74.45;;
53056;SDS011;38940;50.096;4.012;2022-09-20T07:21:12;74.55;;;69.30;;
53056;SDS011;38940;50.096;4.012;2022-09-20T07:23:38;92.45;;;86.35;;
53056;SDS011;38940;50.096;4.012;2022-09-20T07:26:04;98.32;;;91.82;;
53056;SDS011;38940;50.096;4.012;2022-09-20T07:28:31;98.45;;;91.45;;
53056;SDS011;38940;50.096;4.012;2022-09-20T07:30:57;87.93;;;80.00;;
53056;SDS011;38940;50.096;4.012;2022-09-20T07:33:24;91.50;;;85.38;;
53056;SDS011;38940;50.096;4.012;2022-09-20T07:35:51;88.03;;;82.00;;
53056;SDS011;38940;50.096;4.012;2022-09-20T07:38:18;82.63;;;77.07;;
53056;SDS011;38940;50.096;4.012;2022-09-20T07:40:44;93.35;;;87.05;;
53056;SDS011;38940;50.096;4.012;2022-09-20T07:43:11;70.72;;;66.10;;
53056;SDS011;38940;50.096;4.012;2022-09-20T07:45:37;82.05;;;76.63;;
53056;SDS011;38940;50.096;4.012;2022-09-20T07:48:04;99.25;;;92.45;;
53056;SDS011;38940;50.096;4.012;2022-09-20T07:50:31;75.90;;;70.25;;
53056;SDS011;38940;50.096;4.012;2022-09-20T07:52:57;76.03;;;70.55;;
53056;SDS011;38940;50.096;4.012;2022-09-20T07:55:23;80.40;;;75.15;;
53056;SDS011;38940;50.096;4.012;2022-09-20T07:57:50;82.50;;;77.03;;
53056;SDS011;38940;50.096;4.012;2022-09-20T08:00:16;94.57;;;88.05;;
53056;SDS011;38940;50.096;4.012;2022-09-20T08:02:44;66.85;;;62.15;;
53056;SDS011;38940;50.096;4.012;2022-09-20T08:05:11;67.60;;;62.70;;
53056;SDS011;38940;50.096;4.012;2022-09-20T08:07:37;68.50;;;63.40;;
53056;SDS011;38940;50.096;4.012;2022-09-20T08:10:03;61.65;;;57.38;;
53056;SDS011;38940;50.096;4.012;2022-09-20T08:12:29;69.53;;;64.82;;
53056;SDS011;38940;50.096;4.012;2022-09-20T08:14:57;67.60;;;62.97;;
53056;SDS011;38940;50.096;4.012;2022-09-20T08:17:23;72.70;;;67.85;;
53056;SDS011;38940;50.096;4.012;2022-09-20T08:19:50;72.47;;;67.57;;
53056;SDS011;38940;50.096;4.012;2022-09-20T08:22:17;77.72;;;72.38;;
53056;SDS011;38940;50.096;4.012;2022-09-20T08:24:43;71.78;;;66.43;;
53056;SDS011;38940;50.096;4.012;2022-09-20T08:27:10;76.05;;;70.97;;
53056;SDS011;38940;50.096;4.012;2022-09-20T08:29:37;65.88;;;61.00;;
53056;SDS011;38940;50.096;4.012;2022-09-20T08:32:04;68.90;;;64.30;;
53056;SDS011;38940;50.096;4.012;2022-09-20T08:34:30;106.05;;;99.15;;
53056;SDS011;38940;50.096;4.012;2022-09-20T08:36:56;100.40;;;93.30;;
53056;SDS011;38940;50.096;4.012;2022-09-20T08:39:22;120.65;;;112.75;;
53056;SDS011;38940;50.096;4.012;2022-09-20T08:41:53;76.47;;;71.45;;
53056;SDS011;38940;50.096;4.012;2022-09-20T08:44:55;69.35;;;64.35;;
53056;SDS011;38940;50.096;4.012;2022-09-20T08:47:21;66.13;;;61.72;;
53056;SDS011;38940;50.096;4.012;2022-09-20T08:49:49;78.60;;;72.28;;
53056;SDS011;38940;50.096;4.012;2022-09-20T08:52:18;77.90;;;71.70;;
53056;SDS011;38940;50.096;4.012;2022-09-20T08:54:45;88.35;;;82.60;;
53056;SDS011;38940;50.096;4.012;2022-09-20T08:57:13;64.32;;;60.10;;
53056;SDS011;38940;50.096;4.012;2022-09-20T08:59:39;64.25;;;59.85;;
53056;SDS011;38940;50.096;4.012;2022-09-20T09:02:11;63.33;;;59.13;;
53056;SDS011;38940;50.096;4.012;2022-09-20T09:04:41;73.75;;;68.47;;
53056;SDS011;38940;50.096;4.012;2022-09-20T09:07:08;69.50;;;64.75;;
53056;SDS011;38940;50.096;4.012;2022-09-20T09:09:36;68.78;;;64.22;;
53056;SDS011;38940;50.096;4.012;2022-09-20T09:12:05;64.60;;;60.33;;
53056;SDS011;38940;50.096;4.012;2022-09-20T09:14:32;61.35;;;57.30;;
53056;SDS011;38940;50.096;4.012;2022-09-20T09:17:23;67.60;;;63.03;;
53056;SDS011;38940;50.096;4.012;2022-09-20T09:22:20;80.57;;;75.13;;
53056;SDS011;38940;50.096;4.012;2022-09-20T09:27:31;79.75;;;73.75;;
53056;SDS011;38940;50.096;4.012;2022-09-20T09:29:59;67.90;;;63.53;;
53056;SDS011;38940;50.096;4.012;2022-09-20T09:32:29;75.07;;;70.13;;
53056;SDS011;38940;50.096;4.012;2022-09-20T09:35:19;78.70;;;73.18;;
53056;SDS011;38940;50.096;4.012;2022-09-20T09:37:51;78.47;;;72.72;;
53056;SDS011;38940;50.096;4.012;2022-09-20T09:40:18;84.15;;;78.75;;
53056;SDS011;38940;50.096;4.012;2022-09-20T09:42:50;93.15;;;86.78;;
53056;SDS011;38940;50.096;4.012;2022-09-20T09:47:52;78.93;;;72.68;;
53056;SDS011;38940;50.096;4.012;2022-09-20T09:50:29;75.78;;;70.88;;
53056;SDS011;38940;50.096;4.012;2022-09-20T09:53:00;59.97;;;55.40;;
53056;SDS011;38940;50.096;4.012;2022-09-20T09:55:29;70.47;;;65.53;;
53056;SDS011;38940;50.096;4.012;2022-09-20T09:58:03;80.38;;;75.13;;
53056;SDS011;38940;50.096;4.012;2022-09-20T10:00:34;48.58;;;44.92;;
53056;SDS011;38940;50.096;4.012;2022-09-20T10:03:19;45.35;;;42.47;;
53056;SDS011;38940;50.096;4.012;2022-09-20T10:21:38;79.03;;;73.88;;
53056;SDS011;38940;50.096;4.012;2022-09-20T10:24:20;53.70;;;50.30;;
53056;SDS011;38940;50.096;4.012;2022-09-20T10:29:27;48.72;;;45.28;;
53056;SDS011;38940;50.096;4.012;2022-09-20T10:37:29;60.47;;;56.00;;
53056;SDS011;38940;50.096;4.012;2022-09-20T10:42:50;51.10;;;47.70;;
53056;SDS011;38940;50.096;4.012;2022-09-20T10:45:49;46.13;;;43.22;;
53056;SDS011;38940;50.096;4.012;2022-09-20T10:50:53;61.72;;;57.75;;
53056;SDS011;38940;50.096;4.012;2022-09-20T10:53:24;50.60;;;47.08;;
53056;SDS011;38940;50.096;4.012;2022-09-20T11:08:39;54.95;;;50.88;;
53056;SDS011;38940;50.096;4.012;2022-09-20T11:11:12;56.83;;;53.10;;
53056;SDS011;38940;50.096;4.012;2022-09-20T11:14:01;43.58;;;40.78;;
53056;SDS011;38940;50.096;4.012;2022-09-20T11:19:13;52.70;;;49.20;;
53056;SDS011;38940;50.096;4.012;2022-09-20T11:21:53;89.47;;;83.82;;
53056;SDS011;38940;50.096;4.012;2022-09-20T11:26:53;52.50;;;49.03;;
53056;SDS011;38940;50.096;4.012;2022-09-20T11:32:17;68.68;;;64.07;;
53056;SDS011;38940;50.096;4.012;2022-09-20T11:34:55;56.92;;;53.28;;
53056;SDS011;38940;50.096;4.012;2022-09-20T11:37:24;75.07;;;70.25;;
53056;SDS011;38940;50.096;4.012;2022-09-20T11:39:52;70.78;;;66.22;;
53056;SDS011;38940;50.096;4.012;2022-09-20T11:42:27;87.80;;;82.13;;
53056;SDS011;38940;50.096;4.012;2022-09-20T11:44:55;79.00;;;73.78;;
53056;SDS011;38940;50.096;4.012;2022-09-20T11:50:38;61.88;;;57.13;;
53056;SDS011;38940;50.096;4.012;2022-09-20T11:52:58;53.35;;;49.85;;
53056;SDS011;38940;50.096;4.012;2022-09-20T11:58:15;67.20;;;62.85;;
53056;SDS011;38940;50.096;4.012;2022-09-20T12:00:46;55.30;;;51.75;;
53056;SDS011;38940;50.096;4.012;2022-09-20T12:03:48;60.63;;;56.72;;
53056;SDS011;38940;50.096;4.012;2022-09-20T12:06:18;58.35;;;54.55;;
53056;SDS011;38940;50.096;4.012;2022-09-20T12:08:48;57.80;;;54.10;;
53056;SDS011;38940;50.096;4.012;2022-09-20T12:11:14;51.92;;;48.53;;
53056;SDS011;38940;50.096;4.012;2022-09-20T12:13:50;53.65;;;50.05;;
53056;SDS011;38940;50.096;4.012;2022-09-20T12:16:34;52.65;;;49.03;;
53056;SDS011;38940;50.096;4.012;2022-09-20T12:19:02;49.20;;;46.10;;
53056;SDS011;38940;50.096;4.012;2022-09-20T12:21:29;52.83;;;49.42;;
53056;SDS011;38940;50.096;4.012;2022-09-20T12:36:27;60.88;;;56.65;;
53056;SDS011;38940;50.096;4.012;2022-09-20T12:44:27;56.15;;;52.50;;
53056;SDS011;38940;50.096;4.012;2022-09-20T12:49:39;50.75;;;47.20;;
53056;SDS011;38940;50.096;4.012;2022-09-20T13:05:46;47.92;;;44.88;;
53056;SDS011;38940;50.096;4.012;2022-09-20T13:08:22;48.13;;;44.85;;
53056;SDS011;38940;50.096;4.012;2022-09-20T13:10:52;46.47;;;43.28;;
53056;SDS011;38940;50.096;4.012;2022-09-20T13:15:57;51.72;;;48.22;;
53056;SDS011;38940;50.096;4.012;2022-09-20T13:18:25;41.38;;;38.75;;
53056;SDS011;38940;50.096;4.012;2022-09-20T13:20:52;37.72;;;35.38;;
53056;SDS011;38940;50.096;4.012;2022-09-20T13:23:24;42.45;;;39.78;;
53056;SDS011;38940;50.096;4.012;2022-09-20T13:25:52;49.80;;;46.30;;
53056;SDS011;38940;50.096;4.012;2022-09-20T13:28:36;39.30;;;36.60;;
53056;SDS011;38940;50.096;4.012;2022-09-20T13:33:45;45.05;;;41.95;;
53056;SDS011;38940;50.096;4.012;2022-09-20T13:36:11;44.05;;;41.22;;
53056;SDS011;38940;50.096;4.012;2022-09-20T13:38:38;54.80;;;50.70;;
53056;SDS011;38940;50.096;4.012;2022-09-20T13:41:05;48.97;;;45.65;;
53056;SDS011;38940;50.096;4.012;2022-09-20T13:43:40;54.67;;;51.20;;
53056;SDS011;38940;50.096;4.012;2022-09-20T13:46:08;48.58;;;45.40;;
53056;SDS011;38940;50.096;4.012;2022-09-20T13:48:34;56.30;;;52.63;;
53056;SDS011;38940;50.096;4.012;2022-09-20T13:51:00;45.25;;;42.28;;
53056;SDS011;38940;50.096;4.012;2022-09-20T13:53:27;49.85;;;46.67;;
53056;SDS011;38940;50.096;4.012;2022-09-20T13:55:57;51.85;;;47.97;;
53056;SDS011;38940;50.096;4.012;2022-09-20T13:58:27;45.30;;;42.08;;
53056;SDS011;38940;50.096;4.012;2022-09-20T14:00:54;51.55;;;48.25;;
53056;SDS011;38940;50.096;4.012;2022-09-20T14:03:21;46.10;;;43.20;;
53056;SDS011;38940;50.096;4.012;2022-09-20T14:05:48;49.78;;;46.47;;
53056;SDS011;38940;50.096;4.012;2022-09-20T14:08:19;47.42;;;44.33;;
53056;SDS011;38940;50.096;4.012;2022-09-20T14:10:46;45.70;;;42.70;;
53056;SDS011;38940;50.096;4.012;2022-09-20T14:13:15;42.05;;;39.35;;
53056;SDS011;38940;50.096;4.012;2022-09-20T14:15:42;53.60;;;49.22;;
53056;SDS011;38940;50.096;4.012;2022-09-20T14:18:13;50.58;;;46.92;;
53056;SDS011;38940;50.096;4.012;2022-09-20T14:20:41;45.83;;;42.47;;
53056;SDS011;38940;50.096;4.012;2022-09-20T14:23:28;49.92;;;46.42;;
53056;SDS011;38940;50.096;4.012;2022-09-20T14:26:19;45.50;;;42.60;;
53056;SDS011;38940;50.096;4.012;2022-09-20T14:28:46;52.33;;;48.78;;
53056;SDS011;38940;50.096;4.012;2022-09-20T14:31:30;49.22;;;45.97;;
53056;SDS011;38940;50.096;4.012;2022-09-20T14:33:58;52.60;;;49.22;;
53056;SDS011;38940;50.096;4.012;2022-09-20T14:36:26;48.35;;;45.30;;
53056;SDS011;38940;50.096;4.012;2022-09-20T14:38:54;43.80;;;41.03;;
53056;SDS011;38940;50.096;4.012;2022-09-20T14:43:58;51.60;;;48.15;;
53056;SDS011;38940;50.096;4.012;2022-09-20T14:46:42;48.53;;;44.78;;
53056;SDS011;38940;50.096;4.012;2022-09-20T14:49:18;48.72;;;45.30;;
53056;SDS011;38940;50.096;4.012;2022-09-20T14:51:45;46.05;;;42.95;;
53056;SDS011;38940;50.096;4.012;2022-09-20T14:56:38;49.40;;;46.10;;
53056;SDS011;38940;50.096;4.012;2022-09-20T15:01:38;45.03;;;42.10;;
53056;SDS011;38940;50.096;4.012;2022-09-20T15:04:09;48.42;;;45.03;;
53056;SDS011;38940;50.096;4.012;2022-09-20T15:06:42;65.18;;;60.92;;
53056;SDS011;38940;50.096;4.012;2022-09-20T15:09:09;53.90;;;50.50;;
53056;SDS011;38940;50.096;4.012;2022-09-20T15:11:36;60.58;;;56.20;;
53056;SDS011;38940;50.096;4.012;2022-09-20T15:14:03;66.07;;;61.33;;
53056;SDS011;38940;50.096;4.012;2022-09-20T15:16:29;60.70;;;56.80;;
53056;SDS011;38940;50.096;4.012;2022-09-20T15:18:55;49.40;;;45.97;;
53056;SDS011;38940;50.096;4.012;2022-09-20T15:21:21;60.25;;;56.35;;
53056;SDS011;38940;50.096;4.012;2022-09-20T15:23:47;49.53;;;46.40;;
53056;SDS011;38940;50.096;4.012;2022-09-20T15:26:14;49.22;;;45.83;;
53056;SDS011;38940;50.096;4.012;2022-09-20T15:28:40;58.70;;;53.63;;
53056;SDS011;38940;50.096;4.012;2022-09-20T15:31:07;49.13;;;45.83;;
53056;SDS011;38940;50.096;4.012;2022-09-20T15:33:34;48.45;;;45.20;;
53056;SDS011;38940;50.096;4.012;2022-09-20T15:36:01;64.03;;;59.88;;
53056;SDS011;38940;50.096;4.012;2022-09-20T15:38:27;65.43;;;61.15;;
53056;SDS011;38940;50.096;4.012;2022-09-20T15:40:53;67.22;;;62.65;;
53056;SDS011;38940;50.096;4.012;2022-09-20T15:43:20;70.88;;;66.15;;
53056;SDS011;38940;50.096;4.012;2022-09-20T15:45:55;66.10;;;61.80;;
53056;SDS011;38940;50.096;4.012;2022-09-20T15:48:22;62.95;;;58.20;;
53056;SDS011;38940;50.096;4.012;2022-09-20T15:51:05;67.43;;;63.03;;
53056;SDS011;38940;50.096;4.012;2022-09-20T15:53:32;64.93;;;60.78;;
53056;SDS011;38940;50.096;4.012;2022-09-20T15:55:59;71.65;;;66.95;;
53056;SDS011;38940;50.096;4.012;2022-09-20T15:58:30;59.95;;;55.55;;
53056;SDS011;38940;50.096;4.012;2022-09-20T16:01:07;60.83;;;56.83;;
53056;SDS011;38940;50.096;4.012;2022-09-20T16:03:33;72.50;;;67.88;;
53056;SDS011;38940;50.096;4.012;2022-09-20T16:06:00;73.53;;;68.85;;
53056;SDS011;38940;50.096;4.012;2022-09-20T16:08:30;70.03;;;65.57;;
53056;SDS011;38940;50.096;4.012;2022-09-20T16:10:57;62.90;;;58.78;;
53056;SDS011;38940;50.096;4.012;2022-09-20T16:13:23;68.90;;;64.43;;
53056;SDS011;38940;50.096;4.012;2022-09-20T16:15:56;68.40;;;64.00;;
53056;SDS011;38940;50.096;4.012;2022-09-20T16:21:08;64.63;;;60.50;;
53056;SDS011;38940;50.096;4.012;2022-09-20T16:23:35;67.70;;;63.30;;
53056;SDS011;38940;50.096;4.012;2022-09-20T16:26:03;68.88;;;64.43;;
53056;SDS011;38940;50.096;4.012;2022-09-20T16:28:30;70.78;;;66.18;;
53056;SDS011;38940;50.096;4.012;2022-09-20T16:30:56;72.18;;;67.47;;
53056;SDS011;38940;50.096;4.012;2022-09-20T16:33:22;66.32;;;62.10;;
53056;SDS011;38940;50.096;4.012;2022-09-20T16:35:48;64.65;;;60.55;;
53056;SDS011;38940;50.096;4.012;2022-09-20T16:38:15;66.53;;;62.22;;
53056;SDS011;38940;50.096;4.012;2022-09-20T16:40:41;73.57;;;68.88;;
53056;SDS011;38940;50.096;4.012;2022-09-20T16:43:08;60.92;;;57.00;;
53056;SDS011;38940;50.096;4.012;2022-09-20T16:45:34;71.95;;;67.35;;
53056;SDS011;38940;50.096;4.012;2022-09-20T16:48:00;71.80;;;67.15;;
53056;SDS011;38940;50.096;4.012;2022-09-20T16:50:27;66.35;;;61.85;;
53056;SDS011;38940;50.096;4.012;2022-09-20T16:52:54;59.53;;;55.72;;
53056;SDS011;38940;50.096;4.012;2022-09-20T16:55:20;49.08;;;45.97;;
53056;SDS011;38940;50.096;4.012;2022-09-20T16:57:49;70.78;;;65.70;;
53056;SDS011;38940;50.096;4.012;2022-09-20T17:00:15;43.90;;;40.90;;
53056;SDS011;38940;50.096;4.012;2022-09-20T17:02:47;59.10;;;54.80;;
53056;SDS011;38940;50.096;4.012;2022-09-20T17:05:14;56.35;;;52.50;;
53056;SDS011;38940;50.096;4.012;2022-09-20T17:07:40;40.88;;;38.25;;
53056;SDS011;38940;50.096;4.012;2022-09-20T17:10:07;55.30;;;51.67;;
53056;SDS011;38940;50.096;4.012;2022-09-20T17:12:33;56.20;;;52.35;;
53056;SDS011;38940;50.096;4.012;2022-09-20T17:15:05;66.50;;;62.20;;
53056;SDS011;38940;50.096;4.012;2022-09-20T17:17:31;68.53;;;63.72;;
53056;SDS011;38940;50.096;4.012;2022-09-20T17:19:58;60.90;;;57.00;;
53056;SDS011;38940;50.096;4.012;2022-09-20T17:22:27;63.40;;;59.22;;
53056;SDS011;38940;50.096;4.012;2022-09-20T17:24:53;73.97;;;69.28;;
53056;SDS011;38940;50.096;4.012;2022-09-20T17:27:19;70.75;;;66.25;;
53056;SDS011;38940;50.096;4.012;2022-09-20T17:29:46;74.97;;;69.85;;
53056;SDS011;38940;50.096;4.012;2022-09-20T17:32:12;64.90;;;60.47;;
53056;SDS011;38940;50.096;4.012;2022-09-20T17:34:38;61.03;;;56.50;;
53056;SDS011;38940;50.096;4.012;2022-09-20T17:37:04;45.15;;;42.25;;
53056;SDS011;38940;50.096;4.012;2022-09-20T17:39:30;37.10;;;34.63;;
53056;SDS011;38940;50.096;4.012;2022-09-20T17:41:56;42.35;;;39.45;;
53056;SDS011;38940;50.096;4.012;2022-09-20T17:44:22;49.67;;;46.50;;
53056;SDS011;38940;50.096;4.012;2022-09-20T17:46:49;51.20;;;47.95;;
53056;SDS011;38940;50.096;4.012;2022-09-20T17:49:17;53.42;;;50.03;;
53056;SDS011;38940;50.096;4.012;2022-09-20T17:51:44;62.60;;;58.58;;
53056;SDS011;38940;50.096;4.012;2022-09-20T17:54:11;59.85;;;55.35;;
53056;SDS011;38940;50.096;4.012;2022-09-20T17:56:38;64.22;;;60.03;;
53056;SDS011;38940;50.096;4.012;2022-09-20T17:59:05;63.88;;;59.67;;
53056;SDS011;38940;50.096;4.012;2022-09-20T18:01:32;57.88;;;54.13;;
53056;SDS011;38940;50.096;4.012;2022-09-20T18:03:59;55.35;;;51.85;;
53056;SDS011;38940;50.096;4.012;2022-09-20T18:06:26;53.60;;;50.00;;
53056;SDS011;38940;50.096;4.012;2022-09-20T18:08:54;54.47;;;50.80;;
53056;SDS011;38940;50.096;4.012;2022-09-20T18:11:22;55.25;;;51.38;;
53056;SDS011;38940;50.096;4.012;2022-09-20T18:13:49;52.47;;;49.13;;
53056;SDS011;38940;50.096;4.012;2022-09-20T18:16:15;54.60;;;51.08;;
53056;SDS011;38940;50.096;4.012;2022-09-20T18:18:42;45.92;;;43.00;;
53056;SDS011;38940;50.096;4.012;2022-09-20T18:21:09;58.00;;;54.20;;
53056;SDS011;38940;50.096;4.012;2022-09-20T18:23:35;57.15;;;53.42;;
53056;SDS011;38940;50.096;4.012;2022-09-20T18:26:05;45.90;;;42.60;;
53056;SDS011;38940;50.096;4.012;2022-09-20T18:29:08;49.22;;;46.00;;
53056;SDS011;38940;50.096;4.012;2022-09-20T18:34:08;50.80;;;47.53;;
53056;SDS011;38940;50.096;4.012;2022-09-20T18:36:35;50.33;;;47.08;;
53056;SDS011;38940;50.096;4.012;2022-09-20T18:39:03;54.33;;;50.72;;
53056;SDS011;38940;50.096;4.012;2022-09-20T18:41:32;51.10;;;47.78;;
53056;SDS011;38940;50.096;4.012;2022-09-20T18:43:59;56.40;;;52.78;;
53056;SDS011;38940;50.096;4.012;2022-09-20T18:46:26;47.47;;;44.13;;
53056;SDS011;38940;50.096;4.012;2022-09-20T18:48:53;60.83;;;55.45;;
53056;SDS011;38940;50.096;4.012;2022-09-20T18:51:21;53.33;;;49.88;;
53056;SDS011;38940;50.096;4.012;2022-09-20T18:53:48;53.85;;;50.42;;
53056;SDS011;38940;50.096;4.012;2022-09-20T18:58:43;49.22;;;46.13;;
53056;SDS011;38940;50.096;4.012;2022-09-20T19:03:49;60.90;;;56.70;;
53056;SDS011;38940;50.096;4.012;2022-09-20T19:06:19;65.65;;;61.40;;
53056;SDS011;38940;50.096;4.012;2022-09-20T19:11:42;62.17;;;58.03;;
53056;SDS011;38940;50.096;4.012;2022-09-20T19:14:11;66.72;;;62.25;;
53056;SDS011;38940;50.096;4.012;2022-09-20T19:16:41;67.72;;;63.38;;
53056;SDS011;38940;50.096;4.012;2022-09-20T19:21:51;65.95;;;61.65;;
53056;SDS011;38940;50.096;4.012;2022-09-20T19:27:04;65.30;;;60.90;;
53056;SDS011;38940;50.096;4.012;2022-09-20T19:29:30;81.68;;;76.22;;
53056;SDS011;38940;50.096;4.012;2022-09-20T19:31:57;88.55;;;82.82;;
53056;SDS011;38940;50.096;4.012;2022-09-20T19:34:28;79.78;;;74.57;;
53056;SDS011;38940;50.096;4.012;2022-09-20T19:37:00;85.90;;;80.07;;
53056;SDS011;38940;50.096;4.012;2022-09-20T19:47:43;50.80;;;47.38;;